sensor_id;sensor_type;location;lat;lon;timestamp;pressure;altitude;pressure_sealevel;temperature;humidity
37972;BME280;23794;48.234;8.344;2023-02-10T00:01:46;95962.56;;;-4.73;75.85
37972;BME280;23794;48.234;8.344;2023-02-10T00:04:13;95958.34;;;-4.64;76.05
37972;BME280;23794;48.234;8.344;2023-02-10T00:06:41;95962.34;;;-4.72;76.82
37972;BME280;23794;48.234;8.344;2023-02-10T00:09:11;95970.88;;;-4.70;76.58
37972;BME280;23794;48.234;8.344;2023-02-10T00:11:38;95968.19;;;-4.70;76.72
37972;BME280;23794;48.234;8.344;2023-02-10T00:14:23;95979.16;;;-4.71;77.11
37972;BME280;23794;48.234;8.344;2023-02-10T00:16:53;95970.06;;;-4.75;77.52
37972;BME280;23794;48.234;8.344;2023-02-10T00:19:21;95973.53;;;-4.75;77.03
37972;BME280;23794;48.234;8.344;2023-02-10T00:21:48;95971.94;;;-4.76;76.77
37972;BME280;23794;48.234;8.344;2023-02-10T00:24:15;95967.69;;;-4.72;76.38
37972;BME280;23794;48.234;8.344;2023-02-10T00:26:42;95962.84;;;-4.75;76.54
37972;BME280;23794;48.234;8.344;2023-02-10T00:29:09;95962.84;;;-4.75;76.32
37972;BME280;23794;48.234;8.344;2023-02-10T00:31:37;95965.22;;;-4.84;77.27
37972;BME280;23794;48.234;8.344;2023-02-10T00:34:05;95961.19;;;-4.86;77.12
37972;BME280;23794;48.234;8.344;2023-02-10T00:36:32;95956.38;;;-4.84;76.76
37972;BME280;23794;48.234;8.344;2023-02-10T00:39:00;95955.59;;;-4.79;76.53
37972;BME280;23794;48.234;8.344;2023-02-10T00:41:27;95958.81;;;-4.77;76.84
37972;BME280;23794;48.234;8.344;2023-02-10T00:43:54;95959.31;;;-4.86;77.15
37972;BME280;23794;48.234;8.344;2023-02-10T00:46:21;95952.88;;;-4.90;76.91
37972;BME280;23794;48.234;8.344;2023-02-10T00:48:48;95953.38;;;-4.98;77.19
37972;BME280;23794;48.234;8.344;2023-02-10T00:51:16;95952.59;;;-4.93;77.07
37972;BME280;23794;48.234;8.344;2023-02-10T00:53:47;95943.22;;;-4.96;76.79
37972;BME280;23794;48.234;8.344;2023-02-10T00:56:18;95940.75;;;-5.08;77.14
37972;BME280;23794;48.234;8.344;2023-02-10T00:58:46;95944.22;;;-5.07;76.90
37972;BME280;23794;48.234;8.344;2023-02-10T01:01:13;95948.81;;;-4.98;76.92
37972;BME280;23794;48.234;8.344;2023-02-10T01:03:40;95948.31;;;-4.94;76.57
37972;BME280;23794;48.234;8.344;2023-02-10T01:06:07;95952.63;;;-4.88;77.26
37972;BME280;23794;48.234;8.344;2023-02-10T01:08:34;95970.75;;;-4.95;77.52
37972;BME280;23794;48.234;8.344;2023-02-10T01:11:03;95968.88;;;-4.95;77.26
37972;BME280;23794;48.234;8.344;2023-02-10T01:13:31;95969.44;;;-4.93;77.14
37972;BME280;23794;48.234;8.344;2023-02-10T01:16:00;95973.94;;;-4.99;77.67
37972;BME280;23794;48.234;8.344;2023-02-10T01:18:28;95977.44;;;-4.93;76.78
37972;BME280;23794;48.234;8.344;2023-02-10T01:20:56;95973.69;;;-4.97;76.95
37972;BME280;23794;48.234;8.344;2023-02-10T01:23:23;95973.44;;;-4.95;76.69
37972;BME280;23794;48.234;8.344;2023-02-10T01:25:49;95968.34;;;-4.97;76.47
37972;BME280;23794;48.234;8.344;2023-02-10T01:28:16;95975.25;;;-5.01;76.79
37972;BME280;23794;48.234;8.344;2023-02-10T01:30:44;95970.47;;;-4.99;77.12
37972;BME280;23794;48.234;8.344;2023-02-10T01:33:11;95976.94;;;-4.90;76.41
37972;BME280;23794;48.234;8.344;2023-02-10T01:35:38;95972.97;;;-4.82;76.28
37972;BME280;23794;48.234;8.344;2023-02-10T01:38:06;95977.81;;;-4.79;76.52
37972;BME280;23794;48.234;8.344;2023-02-10T01:40:33;95981.50;;;-4.85;76.32
37972;BME280;23794;48.234;8.344;2023-02-10T01:42:59;95979.34;;;-4.93;76.72
37972;BME280;23794;48.234;8.344;2023-02-10T01:47:56;95977.66;;;-5.00;76.37
37972;BME280;23794;48.234;8.344;2023-02-10T01:50:27;95983.53;;;-5.08;76.38
37972;BME280;23794;48.234;8.344;2023-02-10T01:52:56;95985.84;;;-5.17;76.91
37972;BME280;23794;48.234;8.344;2023-02-10T01:55:28;95981.84;;;-5.19;76.59
37972;BME280;23794;48.234;8.344;2023-02-10T01:58:02;95988.78;;;-5.18;76.28
37972;BME280;23794;48.234;8.344;2023-02-10T02:00:30;95980.97;;;-5.25;76.53
37972;BME280;23794;48.234;8.344;2023-02-10T02:02:57;95989.75;;;-5.30;76.78
37972;BME280;23794;48.234;8.344;2023-02-10T02:05:34;95985.50;;;-5.31;77.13
37972;BME280;23794;48.234;8.344;2023-02-10T02:08:05;95984.69;;;-5.31;76.92
37972;BME280;23794;48.234;8.344;2023-02-10T02:21:47;95974.72;;;-5.41;77.66
37972;BME280;23794;48.234;8.344;2023-02-10T02:27:15;95992.69;;;-5.31;76.67
37972;BME280;23794;48.234;8.344;2023-02-10T02:32:55;95993.63;;;-5.48;76.61
37972;BME280;23794;48.234;8.344;2023-02-10T02:35:26;95992.31;;;-5.45;76.14
37972;BME280;23794;48.234;8.344;2023-02-10T02:37:54;95988.59;;;-5.44;75.95
37972;BME280;23794;48.234;8.344;2023-02-10T02:40:22;95991.22;;;-5.49;76.63
37972;BME280;23794;48.234;8.344;2023-02-10T02:42:49;95995.16;;;-5.57;76.66
37972;BME280;23794;48.234;8.344;2023-02-10T02:50:34;95986.44;;;-5.47;76.38
37972;BME280;23794;48.234;8.344;2023-02-10T02:56:00;96002.94;;;-5.55;76.49
37972;BME280;23794;48.234;8.344;2023-02-10T03:01:07;95999.38;;;-5.66;77.46
37972;BME280;23794;48.234;8.344;2023-02-10T03:03:36;96004.72;;;-5.66;77.49
37972;BME280;23794;48.234;8.344;2023-02-10T03:06:06;95999.09;;;-5.65;77.62
37972;BME280;23794;48.234;8.344;2023-02-10T03:08:34;95990.84;;;-5.63;76.72
37972;BME280;23794;48.234;8.344;2023-02-10T03:11:03;95998.34;;;-5.60;76.58
37972;BME280;23794;48.234;8.344;2023-02-10T03:13:30;95986.31;;;-5.63;76.24
37972;BME280;23794;48.234;8.344;2023-02-10T03:15:58;95997.22;;;-5.64;76.44
37972;BME280;23794;48.234;8.344;2023-02-10T03:18:25;95995.34;;;-5.69;76.66
37972;BME280;23794;48.234;8.344;2023-02-10T03:20:52;96004.91;;;-5.73;76.87
37972;BME280;23794;48.234;8.344;2023-02-10T03:23:19;96001.38;;;-5.79;76.92
37972;BME280;23794;48.234;8.344;2023-02-10T03:25:46;96004.09;;;-5.73;76.94
37972;BME280;23794;48.234;8.344;2023-02-10T03:28:13;96009.44;;;-5.73;76.85
37972;BME280;23794;48.234;8.344;2023-02-10T03:30:44;96005.72;;;-5.72;76.24
37972;BME280;23794;48.234;8.344;2023-02-10T03:33:16;96009.19;;;-5.72;76.39
37972;BME280;23794;48.234;8.344;2023-02-10T03:35:44;96011.06;;;-5.72;75.96
37972;BME280;23794;48.234;8.344;2023-02-10T03:38:12;96004.09;;;-5.73;76.07
37972;BME280;23794;48.234;8.344;2023-02-10T03:40:40;96015.03;;;-5.75;76.36
37972;BME280;23794;48.234;8.344;2023-02-10T03:43:07;96017.91;;;-5.82;76.46
37972;BME280;23794;48.234;8.344;2023-02-10T03:45:33;96021.53;;;-5.93;76.97
37972;BME280;23794;48.234;8.344;2023-02-10T03:48:00;96023.41;;;-5.94;77.03
37972;BME280;23794;48.234;8.344;2023-02-10T03:50:27;96023.19;;;-5.87;77.19
37972;BME280;23794;48.234;8.344;2023-02-10T03:52:53;96032.56;;;-5.84;77.12
37972;BME280;23794;48.234;8.344;2023-02-10T03:55:20;96034.41;;;-5.85;76.55
37972;BME280;23794;48.234;8.344;2023-02-10T03:57:47;96034.38;;;-5.90;76.61
37972;BME280;23794;48.234;8.344;2023-02-10T04:00:14;96038.88;;;-5.90;76.47
37972;BME280;23794;48.234;8.344;2023-02-10T04:02:42;96031.16;;;-5.92;76.73
37972;BME280;23794;48.234;8.344;2023-02-10T04:05:08;96035.31;;;-6.01;76.83
37972;BME280;23794;48.234;8.344;2023-02-10T04:07:35;96040.50;;;-5.89;76.79
37972;BME280;23794;48.234;8.344;2023-02-10T04:10:03;96030.13;;;-5.86;76.72
37972;BME280;23794;48.234;8.344;2023-02-10T04:12:30;96037.84;;;-5.89;77.15
37972;BME280;23794;48.234;8.344;2023-02-10T04:14:57;96032.19;;;-5.93;77.32
37972;BME280;23794;48.234;8.344;2023-02-10T04:17:23;96031.97;;;-5.91;76.86
37972;BME280;23794;48.234;8.344;2023-02-10T04:19:50;96035.69;;;-5.93;77.17
37972;BME280;23794;48.234;8.344;2023-02-10T04:22:16;96034.06;;;-5.94;76.89
37972;BME280;23794;48.234;8.344;2023-02-10T04:24:43;96032.75;;;-5.91;76.45
37972;BME280;23794;48.234;8.344;2023-02-10T04:27:10;96045.09;;;-5.85;75.99
37972;BME280;23794;48.234;8.344;2023-02-10T04:29:36;96042.88;;;-5.93;76.30
37972;BME280;23794;48.234;8.344;2023-02-10T04:32:07;96036.13;;;-6.01;76.97
37972;BME280;23794;48.234;8.344;2023-02-10T04:34:34;96047.59;;;-6.00;77.05
37972;BME280;23794;48.234;8.344;2023-02-10T04:37:01;96042.25;;;-6.00;76.65
37972;BME280;23794;48.234;8.344;2023-02-10T04:39:28;96042.81;;;-5.98;76.27
37972;BME280;23794;48.234;8.344;2023-02-10T04:41:54;96047.00;;;-6.07;76.65
37972;BME280;23794;48.234;8.344;2023-02-10T04:44:21;96046.38;;;-6.15;76.39
37972;BME280;23794;48.234;8.344;2023-02-10T04:46:48;96048.88;;;-6.08;75.63
37972;BME280;23794;48.234;8.344;2023-02-10T04:49:17;96049.34;;;-6.11;75.88
37972;BME280;23794;48.234;8.344;2023-02-10T04:51:44;96043.22;;;-6.12;76.43
37972;BME280;23794;48.234;8.344;2023-02-10T04:54:11;96049.97;;;-6.04;76.51
37972;BME280;23794;48.234;8.344;2023-02-10T04:56:37;96047.81;;;-6.07;76.53
37972;BME280;23794;48.234;8.344;2023-02-10T04:59:04;96045.94;;;-6.06;75.99
37972;BME280;23794;48.234;8.344;2023-02-10T05:01:31;96044.88;;;-6.05;75.47
37972;BME280;23794;48.234;8.344;2023-02-10T05:03:58;96041.66;;;-6.07;75.63
37972;BME280;23794;48.234;8.344;2023-02-10T05:06:24;96040.72;;;-6.18;76.59
37972;BME280;23794;48.234;8.344;2023-02-10T05:08:51;96042.91;;;-6.15;76.26
37972;BME280;23794;48.234;8.344;2023-02-10T05:11:20;96042.03;;;-6.21;76.78
37972;BME280;23794;48.234;8.344;2023-02-10T05:13:47;96050.09;;;-6.16;76.24
37972;BME280;23794;48.234;8.344;2023-02-10T05:16:15;96047.31;;;-6.26;76.31
37972;BME280;23794;48.234;8.344;2023-02-10T05:18:42;96040.44;;;-6.22;76.03
37972;BME280;23794;48.234;8.344;2023-02-10T05:21:12;96047.44;;;-6.16;76.37
37972;BME280;23794;48.234;8.344;2023-02-10T05:23:39;96052.03;;;-6.11;76.31
37972;BME280;23794;48.234;8.344;2023-02-10T05:26:07;96041.09;;;-6.10;76.89
37972;BME280;23794;48.234;8.344;2023-02-10T05:28:33;96050.72;;;-6.09;76.78
37972;BME280;23794;48.234;8.344;2023-02-10T05:31:01;96050.09;;;-6.16;76.73
37972;BME280;23794;48.234;8.344;2023-02-10T05:33:31;96055.63;;;-6.22;76.35
37972;BME280;23794;48.234;8.344;2023-02-10T05:35:58;96047.69;;;-6.17;76.09
37972;BME280;23794;48.234;8.344;2023-02-10T05:38:24;96056.75;;;-6.18;76.00
37972;BME280;23794;48.234;8.344;2023-02-10T05:40:53;96047.13;;;-6.19;75.51
37972;BME280;23794;48.234;8.344;2023-02-10T05:43:20;96048.94;;;-6.25;75.52
37972;BME280;23794;48.234;8.344;2023-02-10T05:45:47;96053.16;;;-6.29;75.84
37972;BME280;23794;48.234;8.344;2023-02-10T05:48:14;96059.16;;;-6.39;76.61
37972;BME280;23794;48.234;8.344;2023-02-10T05:50:41;96050.13;;;-6.38;76.93
37972;BME280;23794;48.234;8.344;2023-02-10T05:53:12;96063.25;;;-6.31;77.23
37972;BME280;23794;48.234;8.344;2023-02-10T05:55:39;96054.50;;;-6.27;76.84
37972;BME280;23794;48.234;8.344;2023-02-10T05:58:06;96060.16;;;-6.23;76.78
37972;BME280;23794;48.234;8.344;2023-02-10T06:00:33;96058.63;;;-6.19;76.64
37972;BME280;23794;48.234;8.344;2023-02-10T06:03:00;96063.63;;;-6.22;76.39
37972;BME280;23794;48.234;8.344;2023-02-10T06:05:26;96066.78;;;-6.26;76.33
37972;BME280;23794;48.234;8.344;2023-02-10T06:07:53;96076.34;;;-6.30;76.07
37972;BME280;23794;48.234;8.344;2023-02-10T06:10:22;96074.47;;;-6.29;76.28
37972;BME280;23794;48.234;8.344;2023-02-10T06:12:49;96074.66;;;-6.36;75.31
37972;BME280;23794;48.234;8.344;2023-02-10T06:15:16;96081.28;;;-6.38;75.16
37972;BME280;23794;48.234;8.344;2023-02-10T06:17:45;96078.81;;;-6.45;75.46
37972;BME280;23794;48.234;8.344;2023-02-10T06:20:12;96081.28;;;-6.38;75.24
37972;BME280;23794;48.234;8.344;2023-02-10T06:22:39;96084.16;;;-6.45;75.25
37972;BME280;23794;48.234;8.344;2023-02-10T06:25:07;96084.31;;;-6.52;76.36
37972;BME280;23794;48.234;8.344;2023-02-10T06:27:34;96081.66;;;-6.52;75.76
37972;BME280;23794;48.234;8.344;2023-02-10T06:30:01;96084.69;;;-6.43;75.53
37972;BME280;23794;48.234;8.344;2023-02-10T06:32:28;96088.13;;;-6.48;75.75
37972;BME280;23794;48.234;8.344;2023-02-10T06:34:54;96091.03;;;-6.49;75.90
37972;BME280;23794;48.234;8.344;2023-02-10T06:37:21;96101.53;;;-6.43;75.92
37972;BME280;23794;48.234;8.344;2023-02-10T06:39:48;96098.59;;;-6.41;75.89
37972;BME280;23794;48.234;8.344;2023-02-10T06:42:15;96098.13;;;-6.38;75.77
37972;BME280;23794;48.234;8.344;2023-02-10T06:44:42;96100.97;;;-6.45;75.62
37972;BME280;23794;48.234;8.344;2023-02-10T06:47:08;96098.84;;;-6.43;76.12
37972;BME280;23794;48.234;8.344;2023-02-10T06:49:35;96104.13;;;-6.48;76.70
37972;BME280;23794;48.234;8.344;2023-02-10T06:52:02;96105.28;;;-6.38;75.66
37972;BME280;23794;48.234;8.344;2023-02-10T06:54:42;96109.00;;;-6.39;74.89
37972;BME280;23794;48.234;8.344;2023-02-10T06:57:09;96116.28;;;-6.35;74.60
37972;BME280;23794;48.234;8.344;2023-02-10T06:59:35;96112.09;;;-6.31;74.50
37972;BME280;23794;48.234;8.344;2023-02-10T07:02:02;96120.56;;;-6.34;75.58
37972;BME280;23794;48.234;8.344;2023-02-10T07:04:30;96129.13;;;-6.32;76.17
37972;BME280;23794;48.234;8.344;2023-02-10T07:06:57;96122.34;;;-6.22;75.69
37972;BME280;23794;48.234;8.344;2023-02-10T07:09:24;96123.63;;;-6.25;74.63
37972;BME280;23794;48.234;8.344;2023-02-10T07:11:51;96130.13;;;-6.16;74.46
37972;BME280;23794;48.234;8.344;2023-02-10T07:14:18;96127.16;;;-6.19;75.25
37972;BME280;23794;48.234;8.344;2023-02-10T07:16:44;96123.75;;;-6.15;74.96
37972;BME280;23794;48.234;8.344;2023-02-10T07:19:11;96128.97;;;-6.03;74.86
37972;BME280;23794;48.234;8.344;2023-02-10T07:21:38;96127.66;;;-6.00;75.68
37972;BME280;23794;48.234;8.344;2023-02-10T07:24:05;96133.09;;;-5.95;75.74
37972;BME280;23794;48.234;8.344;2023-02-10T07:26:32;96127.53;;;-5.88;75.78
37972;BME280;23794;48.234;8.344;2023-02-10T07:28:59;96145.75;;;-5.85;75.70
37972;BME280;23794;48.234;8.344;2023-02-10T07:31:26;96132.41;;;-5.85;75.73
37972;BME280;23794;48.234;8.344;2023-02-10T07:33:53;96135.44;;;-5.77;75.71
37972;BME280;23794;48.234;8.344;2023-02-10T07:36:20;96133.69;;;-5.66;75.32
37972;BME280;23794;48.234;8.344;2023-02-10T07:38:46;96139.38;;;-5.57;75.17
37972;BME280;23794;48.234;8.344;2023-02-10T07:41:13;96139.06;;;-5.61;74.77
37972;BME280;23794;48.234;8.344;2023-02-10T07:43:40;96141.19;;;-5.63;74.63
37972;BME280;23794;48.234;8.344;2023-02-10T07:46:12;96146.47;;;-5.68;74.95
37972;BME280;23794;48.234;8.344;2023-02-10T07:48:41;96155.34;;;-5.62;74.62
37972;BME280;23794;48.234;8.344;2023-02-10T07:51:08;96153.56;;;-5.56;74.68
37972;BME280;23794;48.234;8.344;2023-02-10T07:53:35;96153.66;;;-5.46;74.37
37972;BME280;23794;48.234;8.344;2023-02-10T07:56:04;96159.09;;;-5.36;74.32
37972;BME280;23794;48.234;8.344;2023-02-10T07:58:31;96151.97;;;-5.30;74.29
37972;BME280;23794;48.234;8.344;2023-02-10T08:00:58;96157.88;;;-5.28;74.52
37972;BME280;23794;48.234;8.344;2023-02-10T08:03:25;96156.44;;;-5.08;74.33
37972;BME280;23794;48.234;8.344;2023-02-10T08:05:54;96161.06;;;-4.99;73.88
37972;BME280;23794;48.234;8.344;2023-02-10T08:08:21;96161.59;;;-5.02;74.02
37972;BME280;23794;48.234;8.344;2023-02-10T08:10:48;96158.81;;;-4.79;73.75
37972;BME280;23794;48.234;8.344;2023-02-10T08:13:15;96155.78;;;-4.61;73.13
37972;BME280;23794;48.234;8.344;2023-02-10T08:15:42;96156.09;;;-4.52;72.68
37972;BME280;23794;48.234;8.344;2023-02-10T08:18:09;96164.34;;;-4.59;72.76
37972;BME280;23794;48.234;8.344;2023-02-10T08:20:36;96167.34;;;-4.50;72.49
37972;BME280;23794;48.234;8.344;2023-02-10T08:23:03;96162.75;;;-4.55;72.56
37972;BME280;23794;48.234;8.344;2023-02-10T08:25:29;96160.69;;;-4.47;72.97
37972;BME280;23794;48.234;8.344;2023-02-10T08:27:56;96164.00;;;-4.30;72.97
37972;BME280;23794;48.234;8.344;2023-02-10T08:30:24;96160.34;;;-4.13;72.59
37972;BME280;23794;48.234;8.344;2023-02-10T08:32:51;96167.31;;;-4.12;72.42
37972;BME280;23794;48.234;8.344;2023-02-10T08:35:17;96168.91;;;-4.16;72.68
37972;BME280;23794;48.234;8.344;2023-02-10T08:37:44;96168.72;;;-4.05;72.54
37972;BME280;23794;48.234;8.344;2023-02-10T08:40:11;96166.34;;;-3.91;72.65
37972;BME280;23794;48.234;8.344;2023-02-10T08:42:40;96165.94;;;-3.67;72.42
37972;BME280;23794;48.234;8.344;2023-02-10T08:45:07;96162.00;;;-3.44;71.99
37972;BME280;23794;48.234;8.344;2023-02-10T08:47:34;96163.41;;;-3.26;71.82
37972;BME280;23794;48.234;8.344;2023-02-10T08:50:01;96162.63;;;-3.05;71.58
37972;BME280;23794;48.234;8.344;2023-02-10T08:52:28;96156.47;;;-2.91;71.36
37972;BME280;23794;48.234;8.344;2023-02-10T08:54:55;96152.47;;;-2.72;71.21
37972;BME280;23794;48.234;8.344;2023-02-10T08:57:23;96162.69;;;-2.59;70.63
37972;BME280;23794;48.234;8.344;2023-02-10T08:59:49;96163.72;;;-2.34;70.39
37972;BME280;23794;48.234;8.344;2023-02-10T09:02:16;96150.28;;;-2.19;70.09
37972;BME280;23794;48.234;8.344;2023-02-10T09:04:43;96149.44;;;-2.09;69.67
37972;BME280;23794;48.234;8.344;2023-02-10T09:07:11;96151.56;;;-2.01;69.30
37972;BME280;23794;48.234;8.344;2023-02-10T09:09:41;96149.66;;;-1.80;69.17
37972;BME280;23794;48.234;8.344;2023-02-10T09:12:11;96148.22;;;-1.61;68.76
37972;BME280;23794;48.234;8.344;2023-02-10T09:14:39;96147.63;;;-1.48;68.34
37972;BME280;23794;48.234;8.344;2023-02-10T09:17:07;96153.94;;;-1.18;68.44
37972;BME280;23794;48.234;8.344;2023-02-10T09:19:35;96148.66;;;-0.89;68.00
37972;BME280;23794;48.234;8.344;2023-02-10T09:22:06;96142.84;;;-0.66;66.88
37972;BME280;23794;48.234;8.344;2023-02-10T09:24:33;96141.44;;;-0.59;66.75
37972;BME280;23794;48.234;8.344;2023-02-10T09:27:00;96141.84;;;-0.46;66.73
37972;BME280;23794;48.234;8.344;2023-02-10T09:29:27;96149.25;;;-0.28;66.44
37972;BME280;23794;48.234;8.344;2023-02-10T09:31:54;96151.03;;;-0.18;66.19
37972;BME280;23794;48.234;8.344;2023-02-10T09:34:21;96137.09;;;0.04;65.39
37972;BME280;23794;48.234;8.344;2023-02-10T09:36:48;96140.97;;;0.17;65.17
37972;BME280;23794;48.234;8.344;2023-02-10T09:39:14;96137.31;;;0.32;64.74
37972;BME280;23794;48.234;8.344;2023-02-10T09:41:48;96141.03;;;0.36;62.39
37972;BME280;23794;48.234;8.344;2023-02-10T09:44:26;96133.38;;;0.43;62.79
37972;BME280;23794;48.234;8.344;2023-02-10T09:52:45;96144.44;;;0.66;63.31
37972;BME280;23794;48.234;8.344;2023-02-10T09:55:38;96149.41;;;0.78;62.82
37972;BME280;23794;48.234;8.344;2023-02-10T10:01:13;96141.47;;;0.87;63.12
37972;BME280;23794;48.234;8.344;2023-02-10T10:06:18;96139.28;;;1.08;61.75
37972;BME280;23794;48.234;8.344;2023-02-10T10:11:41;96138.81;;;1.20;61.04
37972;BME280;23794;48.234;8.344;2023-02-10T10:14:24;96139.41;;;1.36;61.11
37972;BME280;23794;48.234;8.344;2023-02-10T10:30:47;96142.78;;;2.08;56.86
37972;BME280;23794;48.234;8.344;2023-02-10T10:35:51;96133.38;;;2.19;56.21
37972;BME280;23794;48.234;8.344;2023-02-10T10:38:24;96132.69;;;2.27;55.38
37972;BME280;23794;48.234;8.344;2023-02-10T10:40:54;96134.97;;;2.48;54.25
37972;BME280;23794;48.234;8.344;2023-02-10T10:43:28;96138.69;;;2.66;53.32
37972;BME280;23794;48.234;8.344;2023-02-10T10:46:03;96127.38;;;3.01;53.48
37972;BME280;23794;48.234;8.344;2023-02-10T10:48:32;96120.69;;;3.21;53.39
37972;BME280;23794;48.234;8.344;2023-02-10T10:51:04;96114.81;;;3.41;52.80
37972;BME280;23794;48.234;8.344;2023-02-10T10:55:58;96111.97;;;3.47;51.62
37972;BME280;23794;48.234;8.344;2023-02-10T10:58:39;96115.97;;;3.49;50.76
37972;BME280;23794;48.234;8.344;2023-02-10T11:01:09;96113.44;;;3.75;51.99
37972;BME280;23794;48.234;8.344;2023-02-10T11:03:37;96111.00;;;3.97;50.39
37972;BME280;23794;48.234;8.344;2023-02-10T11:06:12;96111.03;;;4.05;50.01
37972;BME280;23794;48.234;8.344;2023-02-10T11:09:13;96104.09;;;4.22;49.11
37972;BME280;23794;48.234;8.344;2023-02-10T11:11:42;96095.03;;;4.35;49.21
37972;BME280;23794;48.234;8.344;2023-02-10T11:14:15;96102.06;;;4.45;48.63
37972;BME280;23794;48.234;8.344;2023-02-10T11:16:46;96093.94;;;4.45;48.62
37972;BME280;23794;48.234;8.344;2023-02-10T11:19:21;96094.75;;;4.46;49.84
37972;BME280;23794;48.234;8.344;2023-02-10T11:21:49;96095.91;;;4.62;47.38
37972;BME280;23794;48.234;8.344;2023-02-10T11:24:20;96099.41;;;4.71;47.20
37972;BME280;23794;48.234;8.344;2023-02-10T11:29:30;96091.31;;;4.89;46.81
37972;BME280;23794;48.234;8.344;2023-02-10T11:31:58;96100.56;;;4.97;46.97
37972;BME280;23794;48.234;8.344;2023-02-10T11:34:38;96088.44;;;4.85;45.26
37972;BME280;23794;48.234;8.344;2023-02-10T11:37:11;96089.59;;;5.02;46.28
37972;BME280;23794;48.234;8.344;2023-02-10T11:39:42;96082.25;;;5.11;47.43
37972;BME280;23794;48.234;8.344;2023-02-10T11:42:11;96080.16;;;5.08;47.91
37972;BME280;23794;48.234;8.344;2023-02-10T11:45:02;96076.97;;;5.06;47.80
37972;BME280;23794;48.234;8.344;2023-02-10T11:47:31;96084.97;;;5.20;47.62
37972;BME280;23794;48.234;8.344;2023-02-10T11:49:58;96083.50;;;5.05;46.37
37972;BME280;23794;48.234;8.344;2023-02-10T11:52:28;96080.78;;;5.23;47.43
37972;BME280;23794;48.234;8.344;2023-02-10T11:54:59;96080.31;;;5.29;46.71
37972;BME280;23794;48.234;8.344;2023-02-10T12:00:53;96073.59;;;5.36;45.22
37972;BME280;23794;48.234;8.344;2023-02-10T12:06:15;96070.84;;;5.44;45.48
37972;BME280;23794;48.234;8.344;2023-02-10T12:17:29;96066.13;;;5.89;44.53
37972;BME280;23794;48.234;8.344;2023-02-10T12:54:00;96031.03;;;6.35;42.74
37972;BME280;23794;48.234;8.344;2023-02-10T12:57:12;96032.34;;;6.28;42.89
37972;BME280;23794;48.234;8.344;2023-02-10T12:59:51;96031.03;;;6.35;42.85
37972;BME280;23794;48.234;8.344;2023-02-10T13:02:38;96028.19;;;6.52;42.92
37972;BME280;23794;48.234;8.344;2023-02-10T13:05:12;96029.63;;;6.58;42.26
37972;BME280;23794;48.234;8.344;2023-02-10T13:12:59;96021.22;;;6.12;43.32
37972;BME280;23794;48.234;8.344;2023-02-10T13:15:34;96022.63;;;6.49;42.58
37972;BME280;23794;48.234;8.344;2023-02-10T13:18:17;96023.97;;;6.64;42.12
37972;BME280;23794;48.234;8.344;2023-02-10T13:23:33;96027.28;;;6.48;41.36
37972;BME280;23794;48.234;8.344;2023-02-10T13:34:04;96020.19;;;6.98;40.07
37972;BME280;23794;48.234;8.344;2023-02-10T13:36:39;96019.19;;;7.03;41.08
37972;BME280;23794;48.234;8.344;2023-02-10T13:39:19;96020.91;;;7.07;40.13
37972;BME280;23794;48.234;8.344;2023-02-10T13:41:49;96022.53;;;6.87;40.94
37972;BME280;23794;48.234;8.344;2023-02-10T13:44:22;96023.75;;;6.69;41.09
37972;BME280;23794;48.234;8.344;2023-02-10T13:49:23;96035.44;;;6.48;42.02
37972;BME280;23794;48.234;8.344;2023-02-10T13:51:59;96033.66;;;6.22;42.87
37972;BME280;23794;48.234;8.344;2023-02-10T13:54:31;96032.66;;;6.27;42.93
37972;BME280;23794;48.234;8.344;2023-02-10T13:56:59;96039.47;;;6.12;43.96
37972;BME280;23794;48.234;8.344;2023-02-10T13:59:34;96036.66;;;6.29;44.09
37972;BME280;23794;48.234;8.344;2023-02-10T14:02:11;96040.56;;;5.81;44.72
37972;BME280;23794;48.234;8.344;2023-02-10T14:04:44;96039.97;;;5.66;46.01
37972;BME280;23794;48.234;8.344;2023-02-10T14:07:16;96043.91;;;5.78;46.07
37972;BME280;23794;48.234;8.344;2023-02-10T14:15:56;96043.22;;;5.98;46.23
37972;BME280;23794;48.234;8.344;2023-02-10T14:18:29;96040.88;;;5.79;45.69
37972;BME280;23794;48.234;8.344;2023-02-10T14:21:06;96044.88;;;5.73;45.97
37972;BME280;23794;48.234;8.344;2023-02-10T14:23:35;96052.50;;;5.41;46.07
37972;BME280;23794;48.234;8.344;2023-02-10T14:26:05;96051.03;;;5.35;46.44
37972;BME280;23794;48.234;8.344;2023-02-10T14:28:38;96051.38;;;5.33;47.10
37972;BME280;23794;48.234;8.344;2023-02-10T14:31:17;96053.66;;;5.14;47.42
37972;BME280;23794;48.234;8.344;2023-02-10T14:33:53;96058.22;;;4.87;46.87
37972;BME280;23794;48.234;8.344;2023-02-10T14:36:22;96068.44;;;4.64;47.49
37972;BME280;23794;48.234;8.344;2023-02-10T14:39:01;96062.53;;;4.62;48.63
37972;BME280;23794;48.234;8.344;2023-02-10T14:41:31;96057.53;;;4.37;48.06
37972;BME280;23794;48.234;8.344;2023-02-10T14:43:58;96054.47;;;4.30;50.20
37972;BME280;23794;48.234;8.344;2023-02-10T14:46:28;96057.47;;;4.20;49.81
37972;BME280;23794;48.234;8.344;2023-02-10T14:49:18;96062.66;;;3.99;49.53
37972;BME280;23794;48.234;8.344;2023-02-10T14:51:47;96060.22;;;3.88;49.90
37972;BME280;23794;48.234;8.344;2023-02-10T14:54:22;96073.56;;;3.76;51.45
37972;BME280;23794;48.234;8.344;2023-02-10T14:56:59;96074.50;;;3.71;50.68
37972;BME280;23794;48.234;8.344;2023-02-10T14:59:30;96073.50;;;3.67;50.69
37972;BME280;23794;48.234;8.344;2023-02-10T15:02:09;96068.59;;;3.69;51.00
37972;BME280;23794;48.234;8.344;2023-02-10T15:04:47;96068.88;;;3.36;51.52
37972;BME280;23794;48.234;8.344;2023-02-10T15:07:31;96076.94;;;3.27;52.00
37972;BME280;23794;48.234;8.344;2023-02-10T15:10:07;96068.00;;;3.04;52.60
37972;BME280;23794;48.234;8.344;2023-02-10T15:12:38;96069.94;;;2.90;52.79
37972;BME280;23794;48.234;8.344;2023-02-10T15:15:23;96063.97;;;2.79;53.64
37972;BME280;23794;48.234;8.344;2023-02-10T15:20:32;96082.06;;;2.56;54.18
37972;BME280;23794;48.234;8.344;2023-02-10T15:27:57;96088.63;;;2.27;55.72
37972;BME280;23794;48.234;8.344;2023-02-10T15:30:29;96081.53;;;2.17;55.98
37972;BME280;23794;48.234;8.344;2023-02-10T15:32:58;96079.78;;;2.07;56.31
37972;BME280;23794;48.234;8.344;2023-02-10T15:35:26;96082.19;;;1.95;56.74
37972;BME280;23794;48.234;8.344;2023-02-10T15:38:00;96084.28;;;1.84;57.01
37972;BME280;23794;48.234;8.344;2023-02-10T15:40:29;96085.56;;;1.73;57.50
37972;BME280;23794;48.234;8.344;2023-02-10T15:42:58;96100.47;;;1.56;57.93